createdAt,value
2023-04-25T00:02:16.739Z,19.55
2023-04-25T00:04:44.730Z,19.45
2023-04-25T00:07:12.303Z,19.50
2023-04-25T00:09:39.248Z,19.49
2023-04-25T00:12:06.901Z,19.46
2023-04-25T00:14:35.304Z,19.45
2023-04-25T00:17:03.777Z,19.45
2023-04-25T00:19:30.663Z,19.52
2023-04-25T00:21:57.457Z,19.51
2023-04-25T00:24:24.205Z,19.56
2023-04-25T00:26:51.174Z,19.47
2023-04-25T00:29:18.086Z,19.54
2023-04-25T00:31:44.949Z,19.40
2023-04-25T00:34:11.823Z,19.24
2023-04-25T00:36:39.248Z,19.24
2023-04-25T00:39:06.053Z,19.19
2023-04-25T00:41:33.132Z,19.19
2023-04-25T00:44:00.436Z,19.12
2023-04-25T00:46:27.288Z,18.90
2023-04-25T00:48:54.144Z,19.09
2023-04-25T00:51:21.842Z,19.20
2023-04-25T00:53:50.364Z,19.10
2023-04-25T00:56:17.655Z,19.13
2023-04-25T00:58:44.423Z,18.86
2023-04-25T01:01:11.690Z,18.65
2023-04-25T01:03:42.018Z,18.62
2023-04-25T01:06:10.339Z,18.69
2023-04-25T01:08:38.496Z,18.71
2023-04-25T01:11:05.855Z,18.66
2023-04-25T01:13:33.121Z,18.41
2023-04-25T01:16:00.637Z,18.64
2023-04-25T01:18:27.523Z,18.75
2023-04-25T01:20:54.781Z,18.85
2023-04-25T01:23:22.628Z,18.94
2023-04-25T01:25:49.999Z,19.25
2023-04-25T01:28:17.322Z,19.14
2023-04-25T01:30:44.168Z,18.88
2023-04-25T01:33:11.030Z,18.74
2023-04-25T01:35:37.778Z,18.56
2023-04-25T01:38:04.578Z,18.62
2023-04-25T01:40:33.344Z,18.87
2023-04-25T01:43:00.175Z,19.03
2023-04-25T01:45:26.933Z,18.91
2023-04-25T01:47:53.895Z,18.78
2023-04-25T01:50:21.307Z,18.92
2023-04-25T01:52:48.644Z,19.16
2023-04-25T01:55:15.759Z,19.08
2023-04-25T01:57:56.871Z,18.83
2023-04-25T02:00:33.822Z,19.17
2023-04-25T02:03:00.747Z,19.01
2023-04-25T02:05:36.664Z,19.29
2023-04-25T02:08:09.373Z,19.56
2023-04-25T02:10:36.412Z,19.86
2023-04-25T02:13:19.463Z,19.46
2023-04-25T02:15:58.406Z,19.88
2023-04-25T02:18:27.411Z,20.31
2023-04-25T02:20:54.269Z,20.18
2023-04-25T02:23:21.244Z,20.28
2023-04-25T02:25:48.049Z,20.25
2023-04-25T02:28:14.899Z,20.30
2023-04-25T02:30:41.854Z,20.02
2023-04-25T02:33:08.877Z,19.89
2023-04-25T02:35:36.457Z,19.98
2023-04-25T02:38:03.417Z,19.61
2023-04-25T02:40:30.255Z,19.23
2023-04-25T02:42:57.369Z,19.18
2023-04-25T02:45:27.040Z,19.46
2023-04-25T02:47:53.958Z,19.47
2023-04-25T02:50:21.019Z,19.23
2023-04-25T02:52:48.019Z,19.24
2023-04-25T02:55:19.249Z,19.54
2023-04-25T02:57:46.437Z,19.43
2023-04-25T03:00:16.662Z,18.91
2023-04-25T03:05:58.477Z,19.24
2023-04-25T03:08:47.394Z,18.85
2023-04-25T03:11:32.865Z,18.25
2023-04-25T03:14:19.324Z,18.34
2023-04-25T03:16:46.384Z,19.06
2023-04-25T03:19:13.301Z,19.38
2023-04-25T03:21:40.115Z,19.67
2023-04-25T03:24:06.944Z,20.01
2023-04-25T03:26:33.702Z,20.14
2023-04-25T03:29:00.597Z,20.60
2023-04-25T03:31:27.940Z,21.25
2023-04-25T03:33:54.661Z,21.70
2023-04-25T03:36:22.348Z,22.09
2023-04-25T03:38:49.478Z,21.96
2023-04-25T03:41:16.650Z,22.23
2023-04-25T03:43:47.616Z,22.65
2023-04-25T03:46:14.842Z,23.11
2023-04-25T03:48:42.467Z,23.34
2023-04-25T03:51:10.139Z,23.54
2023-04-25T03:53:38.694Z,23.72
2023-04-25T03:56:21.577Z,23.84
2023-04-25T03:58:52.821Z,24.07
2023-04-25T04:01:20.601Z,24.40
2023-04-25T04:03:47.911Z,24.63
2023-04-25T04:06:15.948Z,25.06
2023-04-25T04:08:46.069Z,25.62
2023-04-25T04:11:12.868Z,25.86
2023-04-25T04:13:39.737Z,25.98
2023-04-25T04:16:07.339Z,26.05
2023-04-25T04:18:34.507Z,26.45
2023-04-25T04:21:02.219Z,26.83
2023-04-25T04:23:32.159Z,27.36
2023-04-25T04:25:59.639Z,27.72
2023-04-25T04:28:29.498Z,27.71
2023-04-25T04:31:09.122Z,27.87
2023-04-25T04:33:36.074Z,28.45
2023-04-25T04:36:05.110Z,28.02
2023-04-25T04:38:33.155Z,27.87
2023-04-25T04:41:02.358Z,27.88
2023-04-25T04:43:40.780Z,28.19
2023-04-25T04:46:29.789Z,28.10
2023-04-25T04:49:11.911Z,28.47
2023-04-25T04:51:57.875Z,29.16
2023-04-25T04:56:53.454Z,26.77
2023-04-25T04:59:29.929Z,28.85
2023-04-25T05:02:05.752Z,29.75
2023-04-25T05:04:55.467Z,30.30
2023-04-25T05:07:41.434Z,30.71
2023-04-25T05:10:27.359Z,31.61
2023-04-25T05:13:08.269Z,31.63
2023-04-25T05:15:57.930Z,31.25
2023-04-25T05:18:43.248Z,31.61
2023-04-25T05:21:23.956Z,31.72
2023-04-25T05:24:02.884Z,31.33
2023-04-25T05:26:48.661Z,31.42
2023-04-25T05:29:44.810Z,31.58
2023-04-25T05:32:18.908Z,31.51
2023-04-25T05:34:47.655Z,31.26
2023-04-25T05:37:27.710Z,31.56
2023-04-25T05:40:07.763Z,31.93
2023-04-25T05:43:10.073Z,32.51
2023-04-25T05:45:58.154Z,32.97
2023-04-25T05:48:27.754Z,33.17
2023-04-25T05:51:00.251Z,33.40
2023-04-25T05:53:59.532Z,33.04
2023-04-25T05:56:27.406Z,32.86
2023-04-25T05:58:54.708Z,33.18
2023-04-25T06:01:22.561Z,32.80
2023-04-25T06:03:49.870Z,32.71
2023-04-25T06:06:17.842Z,32.70
2023-04-25T06:08:44.699Z,33.13
2023-04-25T06:11:12.392Z,33.43
2023-04-25T06:13:39.288Z,33.15
2023-04-25T06:16:07.517Z,32.60
2023-04-25T06:18:34.310Z,32.62
2023-04-25T06:21:01.629Z,32.99
2023-04-25T06:23:29.023Z,33.20
2023-04-25T06:26:04.864Z,32.94
2023-04-25T06:28:32.060Z,33.25
2023-04-25T06:30:59.851Z,33.07
2023-04-25T06:33:27.698Z,33.18
2023-04-25T06:35:54.958Z,33.47
2023-04-25T06:38:24.733Z,33.99
2023-04-25T06:40:52.494Z,34.28
2023-04-25T06:43:19.455Z,34.84
2023-04-25T06:46:15.707Z,35.47
2023-04-25T06:48:44.939Z,35.70
2023-04-25T06:51:11.993Z,36.04
2023-04-25T06:53:39.230Z,35.94
2023-04-25T06:56:07.561Z,36.22
2023-04-25T06:58:46.790Z,35.57
2023-04-25T07:01:20.973Z,35.62
2023-04-25T07:03:48.066Z,35.72
2023-04-25T07:06:17.438Z,35.65
2023-04-25T07:08:44.320Z,35.28
2023-04-25T07:11:11.146Z,35.13
2023-04-25T07:13:38.076Z,34.81
2023-04-25T07:16:06.062Z,35.02
2023-04-25T07:18:33.693Z,34.76
2023-04-25T07:21:00.934Z,34.87
2023-04-25T07:23:28.509Z,35.12
2023-04-25T07:25:55.620Z,35.29
2023-04-25T07:28:22.875Z,35.12
2023-04-25T07:30:49.584Z,35.37
2023-04-25T07:33:16.436Z,35.62
2023-04-25T07:35:44.303Z,35.30
2023-04-25T07:38:11.817Z,35.03
2023-04-25T07:40:38.925Z,35.36
2023-04-25T07:43:07.589Z,35.10
2023-04-25T07:45:40.319Z,35.31
2023-04-25T07:48:07.647Z,35.48
2023-04-25T07:50:36.627Z,35.28
2023-04-25T07:53:03.635Z,35.71
2023-04-25T07:55:34.779Z,36.12
2023-04-25T07:58:10.698Z,35.80
2023-04-25T08:00:39.124Z,35.90
2023-04-25T08:03:38.535Z,35.90
2023-04-25T08:06:09.734Z,35.74
2023-04-25T08:08:44.352Z,35.03
2023-04-25T08:11:13.353Z,34.53
2023-04-25T08:13:40.873Z,34.32
2023-04-25T08:16:07.824Z,34.87
2023-04-25T08:18:35.363Z,35.47
2023-04-25T08:21:02.302Z,36.22
2023-04-25T08:23:29.102Z,36.31
2023-04-25T08:26:05.883Z,36.78
2023-04-25T08:28:33.640Z,37.27
2023-04-25T08:31:01.009Z,36.74
2023-04-25T08:33:33.843Z,35.95
2023-04-25T08:36:31.593Z,35.63
2023-04-25T08:39:05.543Z,35.42
2023-04-25T08:41:32.828Z,35.25
2023-04-25T08:44:01.344Z,34.76
2023-04-25T08:46:28.352Z,35.34
2023-04-25T08:49:06.122Z,35.81
2023-04-25T08:51:33.697Z,36.11
2023-04-25T08:56:47.725Z,36.25
2023-04-25T08:59:14.600Z,36.37
2023-04-25T09:01:42.883Z,36.54
2023-04-25T09:04:10.304Z,36.63
2023-04-25T09:06:37.371Z,36.01
2023-04-25T09:09:06.340Z,35.35
2023-04-25T09:11:34.317Z,35.38
2023-04-25T09:14:16.065Z,35.71
2023-04-25T09:17:05.966Z,36.18
2023-04-25T09:19:42.629Z,35.92
2023-04-25T09:22:23.858Z,35.24
2023-04-25T09:24:52.436Z,35.63
2023-04-25T09:27:24.062Z,35.36
2023-04-25T09:30:00.372Z,34.23
2023-04-25T09:32:28.040Z,34.00
2023-04-25T09:34:57.196Z,33.98
2023-04-25T09:37:30.982Z,33.55
2023-04-25T09:40:27.510Z,33.58
2023-04-25T09:43:10.460Z,34.05
2023-04-25T09:45:46.886Z,34.37
2023-04-25T09:48:24.312Z,35.17
2023-04-25T09:51:06.774Z,35.22
2023-04-25T09:53:53.222Z,34.57
2023-04-25T09:56:40.763Z,34.75
2023-04-25T09:59:08.362Z,34.57
2023-04-25T10:01:37.795Z,33.95
2023-04-25T10:04:24.150Z,33.76
2023-04-25T10:07:07.367Z,34.58
2023-04-25T10:09:34.969Z,35.09
2023-04-25T10:12:03.931Z,35.02
2023-04-25T10:14:32.149Z,34.75
2023-04-25T10:16:59.766Z,34.77
2023-04-25T10:19:27.654Z,35.25
2023-04-25T10:22:23.780Z,35.46
2023-04-25T10:24:51.136Z,35.81
2023-04-25T10:27:17.882Z,35.35
2023-04-25T10:29:46.505Z,34.74
2023-04-25T10:32:13.504Z,34.33
2023-04-25T10:34:47.653Z,34.01
2023-04-25T10:37:14.512Z,33.69
2023-04-25T10:39:42.495Z,32.91
2023-04-25T10:42:09.501Z,32.59
2023-04-25T10:44:38.004Z,32.55
2023-04-25T10:47:06.772Z,32.80
2023-04-25T10:49:38.238Z,32.76
2023-04-25T10:52:24.030Z,32.44
2023-04-25T10:54:56.019Z,32.31
2023-04-25T10:57:40.234Z,32.65
2023-04-25T11:00:12.192Z,33.02
2023-04-25T11:02:53.249Z,33.24
2023-04-25T11:05:21.379Z,33.03
2023-04-25T11:08:07.053Z,32.88
2023-04-25T11:10:36.802Z,33.48
2023-04-25T11:13:03.647Z,33.74
2023-04-25T11:15:30.824Z,33.76
2023-04-25T11:17:57.744Z,33.79
2023-04-25T11:20:27.013Z,33.81
2023-04-25T11:22:54.027Z,33.01
2023-04-25T11:25:21.185Z,32.95
2023-04-25T11:27:52.428Z,33.04
2023-04-25T11:30:19.804Z,33.01
2023-04-25T11:32:46.672Z,32.26
2023-04-25T11:35:13.556Z,32.32
2023-04-25T11:37:44.678Z,32.24
2023-04-25T11:40:12.702Z,31.63
2023-04-25T11:42:48.839Z,32.45
2023-04-25T11:45:15.851Z,32.76
2023-04-25T11:47:42.771Z,32.63
2023-04-25T11:50:10.919Z,32.00
2023-04-25T11:52:42.180Z,31.57
2023-04-25T11:55:11.504Z,31.72
2023-04-25T11:57:39.717Z,32.05
2023-04-25T12:00:18.884Z,32.13
2023-04-25T12:02:47.637Z,32.72
2023-04-25T12:07:49.025Z,33.22
2023-04-25T12:10:17.128Z,33.13
2023-04-25T12:12:45.539Z,32.84
2023-04-25T12:15:16.782Z,31.74
2023-04-25T12:17:44.483Z,32.03
2023-04-25T12:20:15.892Z,32.16
2023-04-25T12:22:45.687Z,32.22
2023-04-25T12:25:13.984Z,32.34
2023-04-25T12:27:46.321Z,32.02
2023-04-25T12:30:13.406Z,31.56
2023-04-25T12:32:40.708Z,31.92
2023-04-25T12:35:08.420Z,32.20
2023-04-25T12:37:35.171Z,31.71
2023-04-25T12:40:02.028Z,32.19
2023-04-25T12:42:28.824Z,32.03
2023-04-25T12:44:55.614Z,32.31
2023-04-25T12:47:22.476Z,32.56
2023-04-25T12:49:49.974Z,32.65
2023-04-25T12:52:16.721Z,32.59
2023-04-25T12:54:43.592Z,32.77
2023-04-25T12:57:10.730Z,32.56
2023-04-25T12:59:37.665Z,32.49
2023-04-25T13:02:04.687Z,32.66
2023-04-25T13:04:31.858Z,32.67
2023-04-25T13:06:58.790Z,33.03
2023-04-25T13:09:25.549Z,32.89
2023-04-25T13:11:54.880Z,33.10
2023-04-25T13:14:24.082Z,33.74
2023-04-25T13:16:51.069Z,33.67
2023-04-25T13:19:18.024Z,33.08
2023-04-25T13:21:44.785Z,33.21
2023-04-25T13:24:11.615Z,32.75
2023-04-25T13:26:38.414Z,33.01
2023-04-25T13:29:05.215Z,32.83
2023-04-25T13:31:32.214Z,32.65
2023-04-25T13:33:59.045Z,32.93
2023-04-25T13:36:25.817Z,32.57
2023-04-25T13:38:55.677Z,32.42
2023-04-25T13:41:22.497Z,32.51
2023-04-25T13:43:49.916Z,32.55
2023-04-25T13:46:35.531Z,32.45
2023-04-25T13:49:12.178Z,31.85
2023-04-25T13:51:43.687Z,31.59
2023-04-25T13:54:10.999Z,31.34
2023-04-25T13:56:37.837Z,31.37
2023-04-25T13:59:04.597Z,32.05
2023-04-25T14:01:35.118Z,32.13
2023-04-25T14:04:04.854Z,32.18
2023-04-25T14:06:33.135Z,31.89
2023-04-25T14:09:02.114Z,31.77
2023-04-25T14:11:28.915Z,31.64
2023-04-25T14:13:55.708Z,31.64
2023-04-25T14:16:24.109Z,31.99
2023-04-25T14:18:51.128Z,32.20
2023-04-25T14:21:17.985Z,32.27
2023-04-25T14:23:44.729Z,32.36
2023-04-25T14:26:13.652Z,32.14
2023-04-25T14:28:40.530Z,32.03
2023-04-25T14:31:07.307Z,32.17
2023-04-25T14:33:34.274Z,32.30
2023-04-25T14:36:01.120Z,32.36
2023-04-25T14:38:27.910Z,32.57
2023-04-25T14:40:55.232Z,31.67
2023-04-25T14:43:22.305Z,31.84
2023-04-25T14:45:49.233Z,32.19
2023-04-25T14:48:16.436Z,32.21
2023-04-25T14:50:43.312Z,32.50
2023-04-25T14:53:10.075Z,32.59
2023-04-25T14:55:37.091Z,32.20
2023-04-25T14:58:03.833Z,32.31
2023-04-25T15:00:32.758Z,32.42
2023-04-25T15:03:00.023Z,32.57
2023-04-25T15:05:27.685Z,32.77
2023-04-25T15:07:54.445Z,32.36
2023-04-25T15:10:21.637Z,31.84
2023-04-25T15:12:48.349Z,31.79
2023-04-25T15:15:22.808Z,31.76
2023-04-25T15:17:54.005Z,31.71
2023-04-25T15:20:22.263Z,31.67
2023-04-25T15:22:49.842Z,31.56
2023-04-25T15:25:19.572Z,31.49
2023-04-25T15:27:49.040Z,31.35
2023-04-25T15:30:16.759Z,31.17
2023-04-25T15:32:44.462Z,30.96
2023-04-25T15:35:11.390Z,31.00
2023-04-25T15:37:38.295Z,31.73
2023-04-25T15:40:09.927Z,31.38
2023-04-25T15:42:37.744Z,32.01
2023-04-25T15:45:05.418Z,32.24
2023-04-25T15:47:32.489Z,32.49
2023-04-25T15:49:59.617Z,32.04
2023-04-25T15:52:26.403Z,31.32
2023-04-25T15:54:53.242Z,31.84
2023-04-25T15:57:20.023Z,31.44
2023-04-25T15:59:48.964Z,31.49
2023-04-25T16:02:16.510Z,31.35
2023-04-25T16:04:43.685Z,31.97
2023-04-25T16:07:10.915Z,31.57
2023-04-25T16:09:37.754Z,31.80
2023-04-25T16:12:04.894Z,32.30
2023-04-25T16:14:31.779Z,32.03
2023-04-25T16:17:00.255Z,31.94
2023-04-25T16:19:27.092Z,31.64
2023-04-25T16:21:54.164Z,31.71
2023-04-25T16:24:20.900Z,31.39
2023-04-25T16:26:47.970Z,31.33
2023-04-25T16:29:16.886Z,31.02
2023-04-25T16:31:43.994Z,30.89
2023-04-25T16:34:12.199Z,30.63
2023-04-25T16:36:38.948Z,30.27
2023-04-25T16:39:08.603Z,30.43
2023-04-25T16:41:35.647Z,30.69
2023-04-25T16:44:02.447Z,30.79
2023-04-25T16:46:29.192Z,31.00
2023-04-25T16:48:56.423Z,30.79
2023-04-25T16:51:25.219Z,30.51
2023-04-25T16:53:53.131Z,30.66
2023-04-25T16:56:20.076Z,30.43
2023-04-25T16:58:46.827Z,30.50
2023-04-25T17:01:16.194Z,30.92
2023-04-25T17:03:43.816Z,31.03
2023-04-25T17:06:10.709Z,30.73
2023-04-25T17:08:37.653Z,30.44
2023-04-25T17:13:44.290Z,27.48
2023-04-25T17:16:12.403Z,28.85
2023-04-25T17:18:39.250Z,29.37
2023-04-25T17:21:06.289Z,29.25
2023-04-25T17:23:33.654Z,29.39
2023-04-25T17:26:00.601Z,29.44
2023-04-25T17:28:27.591Z,29.12
2023-04-25T17:30:55.106Z,29.26
2023-04-25T17:33:26.875Z,29.47
2023-04-25T17:35:54.459Z,29.47
2023-04-25T17:38:21.725Z,29.52
2023-04-25T17:40:48.928Z,29.81
2023-04-25T17:43:16.246Z,29.80
2023-04-25T17:45:43.074Z,29.73
2023-04-25T17:48:09.851Z,28.97
2023-04-25T17:50:36.659Z,29.00
2023-04-25T17:53:03.716Z,29.11
2023-04-25T17:55:30.899Z,29.08
2023-04-25T17:57:57.653Z,29.03
2023-04-25T18:00:24.895Z,28.97
2023-04-25T18:02:52.789Z,28.67
2023-04-25T18:05:20.297Z,28.41
2023-04-25T18:07:47.247Z,27.82
2023-04-25T18:10:14.470Z,28.70
2023-04-25T18:12:41.665Z,28.05
2023-04-25T18:15:09.333Z,27.70
2023-04-25T18:17:42.879Z,27.67
2023-04-25T18:20:14.026Z,27.53
2023-04-25T18:22:41.129Z,26.63
2023-04-25T18:25:09.873Z,26.58
2023-04-25T18:27:40.241Z,26.57
2023-04-25T18:30:09.045Z,26.22
2023-04-25T18:32:36.080Z,25.68
2023-04-25T18:35:03.638Z,25.79
2023-04-25T18:37:31.147Z,25.76
2023-04-25T18:39:58.658Z,26.61
2023-04-25T18:42:25.600Z,26.11
2023-04-25T18:44:52.962Z,26.44
2023-04-25T18:47:19.737Z,26.57
2023-04-25T18:49:47.872Z,26.37
2023-04-25T18:52:16.170Z,26.11
2023-04-25T18:54:43.365Z,25.71
2023-04-25T18:57:14.513Z,25.23
2023-04-25T18:59:41.774Z,25.23
2023-04-25T19:02:09.052Z,25.32
2023-04-25T19:04:36.106Z,25.25
2023-04-25T19:07:04.205Z,24.96
2023-04-25T19:09:31.195Z,24.57
2023-04-25T19:11:57.934Z,24.60
2023-04-25T19:14:26.051Z,24.13
2023-04-25T19:16:54.227Z,23.41
2023-04-25T19:19:21.090Z,23.70
2023-04-25T19:21:50.613Z,23.64
2023-04-25T19:24:17.384Z,23.88
2023-04-25T19:26:44.155Z,23.85
2023-04-25T19:29:15.057Z,23.93
2023-04-25T19:31:44.129Z,24.16
2023-04-25T19:34:11.627Z,24.47
2023-04-25T19:36:39.266Z,24.15
2023-04-25T19:39:07.377Z,24.09
2023-04-25T19:41:39.031Z,24.02
2023-04-25T19:44:07.631Z,24.08
2023-04-25T19:46:34.688Z,24.20
2023-04-25T19:49:01.598Z,24.12
2023-04-25T19:51:31.366Z,23.69
2023-04-25T19:53:58.062Z,23.40
2023-04-25T19:56:24.803Z,23.36
2023-04-25T19:58:51.892Z,23.30
2023-04-25T20:01:18.990Z,22.98
2023-04-25T20:03:48.360Z,22.99
2023-04-25T20:06:15.342Z,22.91
2023-04-25T20:08:42.140Z,22.75
2023-04-25T20:11:09.464Z,22.75
2023-04-25T20:13:36.743Z,22.62
2023-04-25T20:16:03.610Z,22.79
2023-04-25T20:18:30.353Z,22.84
2023-04-25T20:20:57.141Z,22.88
2023-04-25T20:23:23.899Z,22.60
2023-04-25T20:25:50.736Z,22.53
2023-04-25T20:28:17.900Z,22.55
2023-04-25T20:30:44.837Z,22.70
2023-04-25T20:33:11.710Z,22.71
2023-04-25T20:35:38.507Z,22.45
2023-04-25T20:38:05.564Z,22.78
2023-04-25T20:40:32.353Z,23.26
2023-04-25T20:42:59.133Z,23.07
2023-04-25T20:45:29.963Z,23.18
2023-04-25T20:47:56.848Z,23.37
2023-04-25T20:50:23.736Z,23.42
2023-04-25T20:52:51.236Z,23.39
2023-04-25T20:55:18.581Z,23.23
2023-04-25T20:57:45.622Z,23.22
2023-04-25T21:00:26.604Z,23.07
2023-04-25T21:02:53.694Z,23.15
2023-04-25T21:05:23.573Z,23.52
2023-04-25T21:07:52.508Z,23.73
2023-04-25T21:10:19.399Z,23.62
2023-04-25T21:12:48.124Z,22.94
2023-04-25T21:15:25.000Z,23.21
2023-04-25T21:17:52.281Z,23.37
2023-04-25T21:20:20.525Z,23.03
2023-04-25T21:22:50.382Z,23.48
2023-04-25T21:25:20.564Z,23.74
2023-04-25T21:27:49.385Z,23.51
2023-04-25T21:30:22.865Z,23.53
2023-04-25T21:32:53.214Z,23.63
2023-04-25T21:35:21.098Z,23.50
2023-04-25T21:37:47.987Z,23.31
2023-04-25T21:40:15.336Z,23.20
2023-04-25T21:42:42.576Z,23.44
2023-04-25T21:45:10.233Z,23.62
2023-04-25T21:47:37.199Z,23.53
2023-04-25T21:50:04.756Z,23.56
2023-04-25T21:52:32.032Z,23.51
2023-04-25T21:54:58.806Z,23.75
2023-04-25T21:57:25.615Z,24.08
2023-04-25T21:59:52.802Z,24.09
2023-04-25T22:02:19.793Z,24.08
2023-04-25T22:04:49.920Z,23.82
2023-04-25T22:07:16.693Z,23.56
2023-04-25T22:09:54.521Z,23.28
2023-04-25T22:12:23.634Z,23.22
2023-04-25T22:14:50.978Z,23.09
2023-04-25T22:17:18.953Z,23.05
2023-04-25T22:19:46.906Z,22.74
2023-04-25T22:22:14.060Z,22.33
2023-04-25T22:24:42.448Z,22.66
2023-04-25T22:27:11.040Z,22.68
2023-04-25T22:29:37.891Z,22.71
2023-04-25T22:32:05.558Z,22.64
2023-04-25T22:34:32.318Z,22.57
2023-04-25T22:36:59.710Z,22.61
2023-04-25T22:39:26.777Z,22.48
2023-04-25T22:41:54.420Z,21.89
2023-04-25T22:44:22.514Z,21.73
2023-04-25T22:46:49.558Z,22.12
2023-04-25T22:49:17.391Z,21.86
2023-04-25T22:51:44.296Z,21.67
2023-04-25T22:54:11.048Z,21.71
2023-04-25T22:56:37.866Z,21.60
2023-04-25T22:59:04.644Z,21.95
2023-04-25T23:01:31.709Z,21.50
2023-04-25T23:03:58.817Z,21.23
2023-04-25T23:06:26.557Z,21.13
2023-04-25T23:08:53.767Z,22.12
2023-04-25T23:11:21.821Z,22.18
2023-04-25T23:13:48.567Z,21.79
2023-04-25T23:16:15.519Z,21.81
2023-04-25T23:18:42.404Z,21.88
2023-04-25T23:21:09.336Z,21.56
2023-04-25T23:23:36.589Z,21.16
2023-04-25T23:26:10.202Z,21.56
2023-04-25T23:28:48.867Z,21.47
2023-04-25T23:31:15.941Z,21.25
2023-04-25T23:33:42.840Z,21.11
2023-04-25T23:36:20.008Z,20.92
2023-04-25T23:38:47.394Z,20.96
2023-04-25T23:41:14.323Z,20.82
2023-04-25T23:43:41.073Z,20.89
2023-04-25T23:46:09.310Z,20.84
2023-04-25T23:48:36.375Z,20.80
2023-04-25T23:51:03.515Z,20.57
2023-04-25T23:53:30.282Z,20.53
2023-04-25T23:55:57.009Z,20.35
2023-04-25T23:58:23.834Z,20.15
